Main page
METAR-TAF:

METAR-TAF

Airports :

Zahedan Airport

Zahedan, Iran

latitude: 29-28N, longitude: 060-53E, elevation: 1370 m

Current weather observation

The report was made 59 minutes ago, at 22:00 UTC
Wind 6 kt from the South/Southeast
Temperature 7°C
Humidity 53%
Pressure 1023 hPa
Visibility 10 km or more
no clouds below 1500 m and no cumulonimbus

METAR: OIZH 192200Z 16006KT CAVOK 07/M02 Q1023 A3022

Time: 02:29 (22:59 UTC)

Forecast

The report was made 5 hours and 9 minutes ago, at 17:50 UTC
Forecast valid from 19 at 18 UTC to 20 at 24 UTC
Wind 8 kt from the Southeast
Visibility: 7000 m
Temporary
from 20 at 09 UTC to 20 at 15 UTC
Wind 16 kt from the Southeast
Visibility: 5000 m
sand

TAF: OIZH 191750Z 1918/2024 13004MPS 7000 NSC TEMPO 2009/2015 14008MPS 5000 SA NSC

Weather observations and forecasts of more than 4000 airports (METAR and TAF reports).

The available stations are represented by yellow and red dots on the map.

Hover mouse over dot to see the name of the station.

Then click to see weather observations and forecasts.

To change the map : click on the green buttons with a black cross to zoom in, on the green button with a dash to zoom out, or on the green arrows for adjacent maps.


METAR-TAF: